sensor_id;sensor_type;location;lat;lon;timestamp;pressure;altitude;pressure_sealevel;temperature;humidity
28306;BME280;7516;43.570;1.448;2024-03-02T00:01:05;98755.28;;;9.18;100.00
28306;BME280;7516;43.570;1.448;2024-03-02T00:03:32;98755.22;;;9.12;100.00
28306;BME280;7516;43.570;1.448;2024-03-02T00:06:00;98762.78;;;9.06;100.00
28306;BME280;7516;43.570;1.448;2024-03-02T00:08:28;98777.41;;;9.01;100.00
28306;BME280;7516;43.570;1.448;2024-03-02T00:10:58;98777.97;;;8.96;100.00
28306;BME280;7516;43.570;1.448;2024-03-02T00:13:26;98762.31;;;8.96;100.00
28306;BME280;7516;43.570;1.448;2024-03-02T00:15:56;98769.75;;;8.99;100.00
28306;BME280;7516;43.570;1.448;2024-03-02T00:18:26;98768.41;;;9.03;100.00
28306;BME280;7516;43.570;1.448;2024-03-02T00:20:55;98766.84;;;9.09;100.00
28306;BME280;7516;43.570;1.448;2024-03-02T00:23:24;98766.84;;;9.09;100.00
28306;BME280;7516;43.570;1.448;2024-03-02T00:25:53;98766.91;;;9.16;100.00
28306;BME280;7516;43.570;1.448;2024-03-02T00:28:23;98769.50;;;9.16;100.00
28306;BME280;7516;43.570;1.448;2024-03-02T00:31:01;98769.16;;;9.19;100.00
28306;BME280;7516;43.570;1.448;2024-03-02T00:33:32;98769.78;;;9.21;100.00
28306;BME280;7516;43.570;1.448;2024-03-02T00:36:01;98761.31;;;9.19;100.00
28306;BME280;7516;43.570;1.448;2024-03-02T00:38:30;98762.94;;;9.20;100.00
28306;BME280;7516;43.570;1.448;2024-03-02T00:41:00;98766.59;;;9.25;100.00
28306;BME280;7516;43.570;1.448;2024-03-02T00:43:42;98763.97;;;9.25;100.00
28306;BME280;7516;43.570;1.448;2024-03-02T00:46:11;98765.19;;;9.23;100.00
28306;BME280;7516;43.570;1.448;2024-03-02T00:48:51;98762.44;;;9.31;100.00
28306;BME280;7516;43.570;1.448;2024-03-02T00:51:20;98757.09;;;9.39;100.00
28306;BME280;7516;43.570;1.448;2024-03-02T00:53:48;98749.47;;;9.44;100.00
28306;BME280;7516;43.570;1.448;2024-03-02T00:56:17;98752.34;;;9.49;100.00
28306;BME280;7516;43.570;1.448;2024-03-02T00:58:45;98750.41;;;9.58;100.00
28306;BME280;7516;43.570;1.448;2024-03-02T01:01:14;98744.34;;;9.57;100.00
28306;BME280;7516;43.570;1.448;2024-03-02T01:03:42;98749.19;;;9.60;100.00
28306;BME280;7516;43.570;1.448;2024-03-02T01:06:10;98745.22;;;9.64;100.00
28306;BME280;7516;43.570;1.448;2024-03-02T01:08:38;98745.03;;;9.66;100.00
28306;BME280;7516;43.570;1.448;2024-03-02T01:11:06;98747.47;;;9.67;100.00
28306;BME280;7516;43.570;1.448;2024-03-02T01:13:34;98751.28;;;9.71;100.00
28306;BME280;7516;43.570;1.448;2024-03-02T01:16:02;98741.63;;;9.72;100.00
28306;BME280;7516;43.570;1.448;2024-03-02T01:18:32;98732.75;;;9.66;100.00
28306;BME280;7516;43.570;1.448;2024-03-02T01:21:00;98732.13;;;9.64;100.00
28306;BME280;7516;43.570;1.448;2024-03-02T01:23:27;98727.91;;;9.63;100.00
28306;BME280;7516;43.570;1.448;2024-03-02T01:25:55;98727.28;;;9.61;100.00
28306;BME280;7516;43.570;1.448;2024-03-02T01:28:23;98720.88;;;9.64;100.00
28306;BME280;7516;43.570;1.448;2024-03-02T01:30:50;98712.81;;;9.65;100.00
28306;BME280;7516;43.570;1.448;2024-03-02T01:33:18;98711.75;;;9.60;100.00
28306;BME280;7516;43.570;1.448;2024-03-02T01:35:48;98705.34;;;9.62;100.00
28306;BME280;7516;43.570;1.448;2024-03-02T01:38:16;98701.56;;;9.65;100.00
28306;BME280;7516;43.570;1.448;2024-03-02T01:40:43;98699.31;;;9.62;100.00
28306;BME280;7516;43.570;1.448;2024-03-02T01:43:11;98698.91;;;9.58;100.00
28306;BME280;7516;43.570;1.448;2024-03-02T01:45:39;98690.44;;;9.56;100.00
28306;BME280;7516;43.570;1.448;2024-03-02T01:48:07;98689.03;;;9.60;100.00
28306;BME280;7516;43.570;1.448;2024-03-02T01:50:36;98686.06;;;9.63;100.00
28306;BME280;7516;43.570;1.448;2024-03-02T01:53:05;98675.16;;;9.60;100.00
28306;BME280;7516;43.570;1.448;2024-03-02T01:55:33;98680.72;;;9.50;100.00
28306;BME280;7516;43.570;1.448;2024-03-02T01:58:01;98676.25;;;9.44;100.00
28306;BME280;7516;43.570;1.448;2024-03-02T02:00:28;98677.44;;;9.41;100.00
28306;BME280;7516;43.570;1.448;2024-03-02T02:02:56;98681.63;;;9.36;100.00
28306;BME280;7516;43.570;1.448;2024-03-02T02:05:23;98669.72;;;9.33;100.00
28306;BME280;7516;43.570;1.448;2024-03-02T02:07:51;98678.72;;;9.24;100.00
28306;BME280;7516;43.570;1.448;2024-03-02T02:10:20;98676.31;;;9.23;100.00
28306;BME280;7516;43.570;1.448;2024-03-02T02:12:47;98668.22;;;9.18;100.00
28306;BME280;7516;43.570;1.448;2024-03-02T02:15:25;98669.16;;;9.10;100.00
28306;BME280;7516;43.570;1.448;2024-03-02T02:17:53;98665.25;;;8.99;100.00
28306;BME280;7516;43.570;1.448;2024-03-02T02:20:21;98663.22;;;8.95;100.00
28306;BME280;7516;43.570;1.448;2024-03-02T02:22:59;98655.38;;;8.95;100.00
28306;BME280;7516;43.570;1.448;2024-03-02T02:25:28;98659.38;;;8.97;100.00
28306;BME280;7516;43.570;1.448;2024-03-02T02:27:56;98662.25;;;9.02;100.00
28306;BME280;7516;43.570;1.448;2024-03-02T02:30:25;98652.13;;;9.14;100.00
28306;BME280;7516;43.570;1.448;2024-03-02T02:32:53;98652.97;;;9.21;100.00
28306;BME280;7516;43.570;1.448;2024-03-02T02:35:21;98636.72;;;9.26;100.00
28306;BME280;7516;43.570;1.448;2024-03-02T02:37:50;98626.88;;;9.28;100.00
28306;BME280;7516;43.570;1.448;2024-03-02T02:40:20;98619.41;;;9.25;100.00
28306;BME280;7516;43.570;1.448;2024-03-02T02:42:48;98623.00;;;9.24;100.00
28306;BME280;7516;43.570;1.448;2024-03-02T02:45:16;98616.78;;;9.25;100.00
28306;BME280;7516;43.570;1.448;2024-03-02T02:47:44;98620.00;;;9.20;100.00
28306;BME280;7516;43.570;1.448;2024-03-02T02:50:12;98600.03;;;9.13;100.00
28306;BME280;7516;43.570;1.448;2024-03-02T02:52:43;98591.19;;;9.14;100.00
28306;BME280;7516;43.570;1.448;2024-03-02T02:55:12;98591.56;;;9.11;100.00
28306;BME280;7516;43.570;1.448;2024-03-02T02:57:43;98577.50;;;9.12;100.00
28306;BME280;7516;43.570;1.448;2024-03-02T03:00:13;98583.09;;;9.09;100.00
28306;BME280;7516;43.570;1.448;2024-03-02T03:02:41;98581.88;;;9.04;100.00
28306;BME280;7516;43.570;1.448;2024-03-02T03:05:13;98572.97;;;8.99;100.00
28306;BME280;7516;43.570;1.448;2024-03-02T03:07:41;98580.22;;;8.97;100.00
28306;BME280;7516;43.570;1.448;2024-03-02T03:10:13;98571.94;;;8.93;100.00
28306;BME280;7516;43.570;1.448;2024-03-02T03:12:42;98559.06;;;8.92;100.00
28306;BME280;7516;43.570;1.448;2024-03-02T03:15:10;98554.03;;;8.90;100.00
28306;BME280;7516;43.570;1.448;2024-03-02T03:17:41;98543.16;;;8.87;100.00
28306;BME280;7516;43.570;1.448;2024-03-02T03:20:09;98544.72;;;8.81;100.00
28306;BME280;7516;43.570;1.448;2024-03-02T03:22:37;98551.53;;;8.76;100.00
28306;BME280;7516;43.570;1.448;2024-03-02T03:25:05;98534.22;;;8.75;100.00
28306;BME280;7516;43.570;1.448;2024-03-02T03:27:34;98529.63;;;8.77;100.00
28306;BME280;7516;43.570;1.448;2024-03-02T03:30:03;98516.75;;;8.75;100.00
28306;BME280;7516;43.570;1.448;2024-03-02T03:32:32;98516.53;;;8.70;100.00
28306;BME280;7516;43.570;1.448;2024-03-02T03:34:59;98506.81;;;8.64;100.00
28306;BME280;7516;43.570;1.448;2024-03-02T03:37:26;98506.41;;;8.60;100.00
28306;BME280;7516;43.570;1.448;2024-03-02T03:39:58;98507.97;;;8.55;100.00
28306;BME280;7516;43.570;1.448;2024-03-02T03:42:27;98499.72;;;8.51;100.00
28306;BME280;7516;43.570;1.448;2024-03-02T03:44:54;98500.53;;;8.52;100.00
28306;BME280;7516;43.570;1.448;2024-03-02T03:47:23;98500.88;;;8.49;100.00
28306;BME280;7516;43.570;1.448;2024-03-02T03:49:51;98496.84;;;8.46;100.00
28306;BME280;7516;43.570;1.448;2024-03-02T03:52:18;98488.66;;;8.49;100.00
28306;BME280;7516;43.570;1.448;2024-03-02T03:54:47;98484.78;;;8.45;100.00
28306;BME280;7516;43.570;1.448;2024-03-02T03:57:14;98486.00;;;8.43;100.00
28306;BME280;7516;43.570;1.448;2024-03-02T03:59:42;98477.53;;;8.41;100.00
28306;BME280;7516;43.570;1.448;2024-03-02T04:02:10;98480.50;;;8.38;100.00
28306;BME280;7516;43.570;1.448;2024-03-02T04:04:40;98476.69;;;8.34;100.00
28306;BME280;7516;43.570;1.448;2024-03-02T04:07:08;98471.16;;;8.28;100.00
28306;BME280;7516;43.570;1.448;2024-03-02T04:09:35;98471.34;;;8.27;100.00
28306;BME280;7516;43.570;1.448;2024-03-02T04:12:03;98463.34;;;8.28;100.00
28306;BME280;7516;43.570;1.448;2024-03-02T04:14:30;98461.94;;;8.26;100.00
28306;BME280;7516;43.570;1.448;2024-03-02T04:16:58;98456.47;;;8.21;100.00
28306;BME280;7516;43.570;1.448;2024-03-02T04:19:26;98455.03;;;8.18;100.00
28306;BME280;7516;43.570;1.448;2024-03-02T04:21:55;98457.03;;;8.16;100.00
28306;BME280;7516;43.570;1.448;2024-03-02T04:24:22;98461.44;;;8.16;100.00
28306;BME280;7516;43.570;1.448;2024-03-02T04:26:49;98453.16;;;8.12;100.00
28306;BME280;7516;43.570;1.448;2024-03-02T04:29:17;98451.81;;;8.16;100.00
28306;BME280;7516;43.570;1.448;2024-03-02T04:31:44;98438.38;;;8.19;100.00
28306;BME280;7516;43.570;1.448;2024-03-02T04:34:12;98440.84;;;8.27;100.00
28306;BME280;7516;43.570;1.448;2024-03-02T04:36:39;98441.97;;;8.18;100.00
28306;BME280;7516;43.570;1.448;2024-03-02T04:39:09;98439.00;;;8.21;100.00
28306;BME280;7516;43.570;1.448;2024-03-02T04:41:37;98444.22;;;8.21;100.00
28306;BME280;7516;43.570;1.448;2024-03-02T04:44:05;98447.63;;;8.22;100.00
28306;BME280;7516;43.570;1.448;2024-03-02T04:46:34;98432.16;;;8.20;100.00
28306;BME280;7516;43.570;1.448;2024-03-02T04:49:01;98428.94;;;8.18;100.00
28306;BME280;7516;43.570;1.448;2024-03-02T04:51:29;98430.53;;;8.19;100.00
28306;BME280;7516;43.570;1.448;2024-03-02T04:53:56;98426.31;;;8.18;100.00
28306;BME280;7516;43.570;1.448;2024-03-02T04:56:25;98428.75;;;8.20;100.00
28306;BME280;7516;43.570;1.448;2024-03-02T04:59:15;98431.16;;;8.21;100.00
28306;BME280;7516;43.570;1.448;2024-03-02T05:01:44;98425.31;;;8.19;100.00
28306;BME280;7516;43.570;1.448;2024-03-02T05:04:12;98421.34;;;8.23;100.00
28306;BME280;7516;43.570;1.448;2024-03-02T05:06:42;98414.75;;;8.27;100.00
28306;BME280;7516;43.570;1.448;2024-03-02T05:09:10;98420.38;;;8.24;100.00
28306;BME280;7516;43.570;1.448;2024-03-02T05:11:39;98415.69;;;8.20;100.00
28306;BME280;7516;43.570;1.448;2024-03-02T05:14:36;98401.69;;;8.27;100.00
28306;BME280;7516;43.570;1.448;2024-03-02T05:17:03;98408.94;;;8.25;100.00
28306;BME280;7516;43.570;1.448;2024-03-02T05:19:31;98401.03;;;8.19;100.00
28306;BME280;7516;43.570;1.448;2024-03-02T05:21:58;98393.59;;;8.16;100.00
28306;BME280;7516;43.570;1.448;2024-03-02T05:24:26;98392.16;;;8.13;100.00
28306;BME280;7516;43.570;1.448;2024-03-02T05:26:55;98388.38;;;8.16;100.00
28306;BME280;7516;43.570;1.448;2024-03-02T05:29:23;98377.56;;;8.19;100.00
28306;BME280;7516;43.570;1.448;2024-03-02T05:31:50;98375.53;;;8.14;100.00
28306;BME280;7516;43.570;1.448;2024-03-02T05:34:18;98373.59;;;8.23;100.00
28306;BME280;7516;43.570;1.448;2024-03-02T05:36:45;98364.50;;;8.19;100.00
28306;BME280;7516;43.570;1.448;2024-03-02T05:39:13;98356.28;;;8.15;100.00
28306;BME280;7516;43.570;1.448;2024-03-02T05:41:41;98359.88;;;8.14;100.00
28306;BME280;7516;43.570;1.448;2024-03-02T05:44:10;98354.88;;;8.19;100.00
28306;BME280;7516;43.570;1.448;2024-03-02T05:46:41;98354.28;;;8.17;100.00
28306;BME280;7516;43.570;1.448;2024-03-02T05:49:09;98347.84;;;8.20;100.00
28306;BME280;7516;43.570;1.448;2024-03-02T05:51:36;98352.91;;;8.21;100.00
28306;BME280;7516;43.570;1.448;2024-03-02T05:54:04;98347.50;;;8.23;100.00
28306;BME280;7516;43.570;1.448;2024-03-02T05:56:31;98347.84;;;8.20;100.00
28306;BME280;7516;43.570;1.448;2024-03-02T05:58:59;98341.66;;;8.21;100.00
28306;BME280;7516;43.570;1.448;2024-03-02T06:01:43;98345.44;;;8.18;100.00
28306;BME280;7516;43.570;1.448;2024-03-02T06:04:11;98332.19;;;8.20;100.00
28306;BME280;7516;43.570;1.448;2024-03-02T06:06:41;98327.00;;;8.20;100.00
28306;BME280;7516;43.570;1.448;2024-03-02T06:09:12;98321.75;;;8.20;100.00
28306;BME280;7516;43.570;1.448;2024-03-02T06:11:42;98309.34;;;8.22;100.00
28306;BME280;7516;43.570;1.448;2024-03-02T06:14:10;98299.09;;;8.20;100.00
28306;BME280;7516;43.570;1.448;2024-03-02T06:16:39;98295.66;;;8.13;100.00
28306;BME280;7516;43.570;1.448;2024-03-02T06:19:06;98294.84;;;8.13;100.00
28306;BME280;7516;43.570;1.448;2024-03-02T06:21:34;98298.88;;;8.15;100.00
28306;BME280;7516;43.570;1.448;2024-03-02T06:24:01;98290.47;;;8.20;100.00
28306;BME280;7516;43.570;1.448;2024-03-02T06:26:29;98284.06;;;8.22;100.00
28306;BME280;7516;43.570;1.448;2024-03-02T06:28:57;98284.44;;;8.19;100.00
28306;BME280;7516;43.570;1.448;2024-03-02T06:31:25;98277.59;;;8.18;100.00
28306;BME280;7516;43.570;1.448;2024-03-02T06:33:54;98268.78;;;8.19;100.00
28306;BME280;7516;43.570;1.448;2024-03-02T06:36:21;98265.16;;;8.20;100.00
28306;BME280;7516;43.570;1.448;2024-03-02T06:38:49;98254.72;;;8.20;100.00
28306;BME280;7516;43.570;1.448;2024-03-02T06:41:16;98247.09;;;8.19;100.00
28306;BME280;7516;43.570;1.448;2024-03-02T06:43:44;98257.31;;;8.14;100.00
28306;BME280;7516;43.570;1.448;2024-03-02T06:46:11;98256.28;;;8.08;100.00
28306;BME280;7516;43.570;1.448;2024-03-02T06:48:40;98254.91;;;8.12;100.00
28306;BME280;7516;43.570;1.448;2024-03-02T06:51:09;98253.28;;;8.11;100.00
28306;BME280;7516;43.570;1.448;2024-03-02T06:53:37;98246.25;;;8.12;100.00
28306;BME280;7516;43.570;1.448;2024-03-02T06:56:07;98246.44;;;8.10;100.00
28306;BME280;7516;43.570;1.448;2024-03-02T06:58:38;98242.22;;;8.09;100.00
28306;BME280;7516;43.570;1.448;2024-03-02T07:01:05;98234.41;;;8.09;100.00
28306;BME280;7516;43.570;1.448;2024-03-02T07:03:32;98233.84;;;8.20;100.00
28306;BME280;7516;43.570;1.448;2024-03-02T07:06:00;98225.28;;;8.26;100.00
28306;BME280;7516;43.570;1.448;2024-03-02T07:08:29;98238.31;;;8.26;100.00
28306;BME280;7516;43.570;1.448;2024-03-02T07:10:57;98250.75;;;8.24;100.00
28306;BME280;7516;43.570;1.448;2024-03-02T07:13:24;98242.16;;;8.30;100.00
28306;BME280;7516;43.570;1.448;2024-03-02T07:15:52;98232.75;;;8.36;100.00
28306;BME280;7516;43.570;1.448;2024-03-02T07:18:47;98228.34;;;8.37;100.00
28306;BME280;7516;43.570;1.448;2024-03-02T07:21:18;98228.78;;;8.47;100.00
28306;BME280;7516;43.570;1.448;2024-03-02T07:23:47;98226.78;;;8.49;100.00
28306;BME280;7516;43.570;1.448;2024-03-02T07:26:14;98226.97;;;8.47;100.00
28306;BME280;7516;43.570;1.448;2024-03-02T07:28:42;98221.56;;;8.49;100.00
28306;BME280;7516;43.570;1.448;2024-03-02T07:31:10;98217.59;;;8.53;100.00
28306;BME280;7516;43.570;1.448;2024-03-02T07:33:37;98216.34;;;8.49;100.00
28306;BME280;7516;43.570;1.448;2024-03-02T07:36:06;98215.97;;;8.52;100.00
28306;BME280;7516;43.570;1.448;2024-03-02T07:38:33;98205.94;;;8.62;100.00
28306;BME280;7516;43.570;1.448;2024-03-02T07:41:03;98194.72;;;8.61;100.00
28306;BME280;7516;43.570;1.448;2024-03-02T07:43:31;98196.09;;;8.64;100.00
28306;BME280;7516;43.570;1.448;2024-03-02T07:45:59;98188.69;;;8.67;100.00
28306;BME280;7516;43.570;1.448;2024-03-02T07:48:26;98171.66;;;8.78;100.00
28306;BME280;7516;43.570;1.448;2024-03-02T07:50:54;98177.47;;;8.87;100.00
28306;BME280;7516;43.570;1.448;2024-03-02T07:53:21;98176.06;;;8.97;100.00
28306;BME280;7516;43.570;1.448;2024-03-02T07:55:49;98174.25;;;8.91;100.00
28306;BME280;7516;43.570;1.448;2024-03-02T07:58:18;98170.84;;;8.97;100.00
28306;BME280;7516;43.570;1.448;2024-03-02T08:00:46;98167.25;;;9.05;100.00
28306;BME280;7516;43.570;1.448;2024-03-02T08:03:14;98168.22;;;8.97;100.00
28306;BME280;7516;43.570;1.448;2024-03-02T08:05:41;98173.44;;;8.97;100.00
28306;BME280;7516;43.570;1.448;2024-03-02T08:08:09;98164.63;;;8.98;100.00
28306;BME280;7516;43.570;1.448;2024-03-02T08:10:38;98165.63;;;9.04;100.00
28306;BME280;7516;43.570;1.448;2024-03-02T08:13:05;98166.84;;;9.15;100.00
28306;BME280;7516;43.570;1.448;2024-03-02T08:15:34;98166.66;;;9.23;100.00
28306;BME280;7516;43.570;1.448;2024-03-02T08:18:01;98159.38;;;9.25;100.00
28306;BME280;7516;43.570;1.448;2024-03-02T08:20:29;98153.34;;;9.44;100.00
28306;BME280;7516;43.570;1.448;2024-03-02T08:22:57;98150.13;;;9.49;100.00
28306;BME280;7516;43.570;1.448;2024-03-02T08:25:25;98154.72;;;9.60;100.00
28306;BME280;7516;43.570;1.448;2024-03-02T08:27:52;98154.50;;;9.74;100.00
28306;BME280;7516;43.570;1.448;2024-03-02T08:30:20;98150.44;;;9.78;100.00
28306;BME280;7516;43.570;1.448;2024-03-02T08:32:49;98161.91;;;9.91;100.00
28306;BME280;7516;43.570;1.448;2024-03-02T08:35:16;98156.06;;;9.89;100.00
28306;BME280;7516;43.570;1.448;2024-03-02T08:37:44;98155.00;;;10.03;100.00
28306;BME280;7516;43.570;1.448;2024-03-02T08:40:12;98148.75;;;10.04;100.00
28306;BME280;7516;43.570;1.448;2024-03-02T08:42:40;98142.31;;;10.06;100.00
28306;BME280;7516;43.570;1.448;2024-03-02T08:45:08;98134.22;;;10.14;100.00
28306;BME280;7516;43.570;1.448;2024-03-02T08:47:36;98133.25;;;10.09;100.00
28306;BME280;7516;43.570;1.448;2024-03-02T08:50:06;98137.06;;;10.06;100.00
28306;BME280;7516;43.570;1.448;2024-03-02T08:52:34;98123.38;;;10.11;100.00
28306;BME280;7516;43.570;1.448;2024-03-02T08:55:02;98121.13;;;10.14;100.00
28306;BME280;7516;43.570;1.448;2024-03-02T08:57:29;98114.09;;;10.15;100.00
28306;BME280;7516;43.570;1.448;2024-03-02T08:59:57;98104.63;;;10.14;100.00
28306;BME280;7516;43.570;1.448;2024-03-02T09:02:24;98106.63;;;10.12;100.00
28306;BME280;7516;43.570;1.448;2024-03-02T09:04:52;98105.06;;;10.11;100.00
28306;BME280;7516;43.570;1.448;2024-03-02T09:07:21;98099.38;;;10.14;100.00
28306;BME280;7516;43.570;1.448;2024-03-02T09:09:49;98101.22;;;10.20;100.00
28306;BME280;7516;43.570;1.448;2024-03-02T09:12:16;98093.75;;;10.17;100.00
28306;BME280;7516;43.570;1.448;2024-03-02T09:14:44;98092.34;;;10.21;99.85
28306;BME280;7516;43.570;1.448;2024-03-02T09:17:11;98097.97;;;10.25;100.00
28306;BME280;7516;43.570;1.448;2024-03-02T09:19:40;98097.13;;;10.31;100.00
28306;BME280;7516;43.570;1.448;2024-03-02T09:22:07;98095.03;;;10.39;100.00
28306;BME280;7516;43.570;1.448;2024-03-02T09:24:37;98084.06;;;10.55;100.00
28306;BME280;7516;43.570;1.448;2024-03-02T09:27:05;98075.53;;;10.67;100.00
28306;BME280;7516;43.570;1.448;2024-03-02T09:29:32;98068.41;;;10.74;100.00
28306;BME280;7516;43.570;1.448;2024-03-02T09:32:00;98077.19;;;10.86;100.00
28306;BME280;7516;43.570;1.448;2024-03-02T09:34:28;98072.06;;;10.98;100.00
28306;BME280;7516;43.570;1.448;2024-03-02T09:36:55;98059.47;;;11.06;100.00
28306;BME280;7516;43.570;1.448;2024-03-02T09:39:23;98052.34;;;11.13;100.00
28306;BME280;7516;43.570;1.448;2024-03-02T09:41:53;98047.31;;;11.12;100.00
28306;BME280;7516;43.570;1.448;2024-03-02T09:44:21;98035.56;;;10.96;100.00
28306;BME280;7516;43.570;1.448;2024-03-02T09:46:49;98032.28;;;11.01;100.00
28306;BME280;7516;43.570;1.448;2024-03-02T09:49:17;98020.88;;;10.95;100.00
28306;BME280;7516;43.570;1.448;2024-03-02T09:51:48;98017.66;;;10.93;100.00
28306;BME280;7516;43.570;1.448;2024-03-02T09:54:16;98023.06;;;10.98;100.00
28306;BME280;7516;43.570;1.448;2024-03-02T09:56:44;98012.00;;;10.96;100.00
28306;BME280;7516;43.570;1.448;2024-03-02T09:59:13;98013.16;;;11.00;100.00
28306;BME280;7516;43.570;1.448;2024-03-02T10:01:56;98003.72;;;10.99;100.00
28306;BME280;7516;43.570;1.448;2024-03-02T10:04:26;98005.44;;;11.05;100.00
28306;BME280;7516;43.570;1.448;2024-03-02T10:07:13;98007.84;;;11.07;100.00
28306;BME280;7516;43.570;1.448;2024-03-02T10:09:41;98002.53;;;11.13;100.00
28306;BME280;7516;43.570;1.448;2024-03-02T10:12:10;98011.22;;;11.14;100.00
28306;BME280;7516;43.570;1.448;2024-03-02T10:14:40;98002.38;;;11.26;100.00
28306;BME280;7516;43.570;1.448;2024-03-02T10:17:12;98003.94;;;11.34;100.00
28306;BME280;7516;43.570;1.448;2024-03-02T10:19:40;97993.66;;;11.32;100.00
28306;BME280;7516;43.570;1.448;2024-03-02T10:22:08;97984.00;;;11.45;100.00
28306;BME280;7516;43.570;1.448;2024-03-02T10:24:38;97968.56;;;11.55;100.00
28306;BME280;7516;43.570;1.448;2024-03-02T10:27:10;97959.31;;;11.52;100.00
28306;BME280;7516;43.570;1.448;2024-03-02T10:29:40;97961.66;;;11.60;100.00
28306;BME280;7516;43.570;1.448;2024-03-02T10:32:11;97957.91;;;11.68;100.00
28306;BME280;7516;43.570;1.448;2024-03-02T10:34:42;97945.94;;;11.72;100.00
28306;BME280;7516;43.570;1.448;2024-03-02T10:37:11;97946.81;;;11.84;100.00
28306;BME280;7516;43.570;1.448;2024-03-02T10:39:40;97943.75;;;11.87;100.00
28306;BME280;7516;43.570;1.448;2024-03-02T10:42:07;97939.84;;;11.90;100.00
28306;BME280;7516;43.570;1.448;2024-03-02T10:44:34;97938.72;;;11.97;100.00
28306;BME280;7516;43.570;1.448;2024-03-02T10:47:04;97921.28;;;12.03;100.00
28306;BME280;7516;43.570;1.448;2024-03-02T10:49:33;97921.53;;;12.13;100.00
28306;BME280;7516;43.570;1.448;2024-03-02T10:52:00;97919.72;;;12.14;100.00
28306;BME280;7516;43.570;1.448;2024-03-02T10:54:28;97916.19;;;12.20;100.00
28306;BME280;7516;43.570;1.448;2024-03-02T10:57:02;97908.88;;;12.22;100.00
28306;BME280;7516;43.570;1.448;2024-03-02T10:59:34;97911.03;;;12.25;99.98
28306;BME280;7516;43.570;1.448;2024-03-02T11:02:04;97904.31;;;12.29;99.50
28306;BME280;7516;43.570;1.448;2024-03-02T11:04:35;97906.47;;;12.32;99.52
28306;BME280;7516;43.570;1.448;2024-03-02T11:07:04;97903.97;;;12.37;98.51
28306;BME280;7516;43.570;1.448;2024-03-02T11:09:34;97901.09;;;12.50;99.47
28306;BME280;7516;43.570;1.448;2024-03-02T11:12:06;97901.22;;;12.55;98.79
28306;BME280;7516;43.570;1.448;2024-03-02T11:14:41;97902.34;;;12.59;97.77
28306;BME280;7516;43.570;1.448;2024-03-02T11:17:13;97880.06;;;12.62;97.28
28306;BME280;7516;43.570;1.448;2024-03-02T11:19:43;97887.28;;;12.66;96.68
28306;BME280;7516;43.570;1.448;2024-03-02T11:22:12;97883.25;;;12.75;96.22
28306;BME280;7516;43.570;1.448;2024-03-02T11:24:40;97881.91;;;12.73;95.95
28306;BME280;7516;43.570;1.448;2024-03-02T11:27:14;97872.28;;;12.78;96.30
28306;BME280;7516;43.570;1.448;2024-03-02T11:30:02;97870.38;;;12.74;95.54
28306;BME280;7516;43.570;1.448;2024-03-02T11:32:31;97848.97;;;12.82;96.39
28306;BME280;7516;43.570;1.448;2024-03-02T11:34:58;97846.44;;;12.87;96.38
28306;BME280;7516;43.570;1.448;2024-03-02T11:37:26;97844.81;;;12.86;96.53
28306;BME280;7516;43.570;1.448;2024-03-02T11:39:53;97839.91;;;12.90;95.85
28306;BME280;7516;43.570;1.448;2024-03-02T11:42:21;97838.66;;;12.92;95.53
28306;BME280;7516;43.570;1.448;2024-03-02T11:44:49;97837.94;;;12.97;95.30
28306;BME280;7516;43.570;1.448;2024-03-02T11:47:17;97836.09;;;13.09;96.00
28306;BME280;7516;43.570;1.448;2024-03-02T11:49:48;97828.75;;;13.11;94.76
28306;BME280;7516;43.570;1.448;2024-03-02T11:52:17;97816.28;;;13.18;93.65
28306;BME280;7516;43.570;1.448;2024-03-02T11:54:46;97827.63;;;13.18;93.34
28306;BME280;7516;43.570;1.448;2024-03-02T11:57:16;97818.53;;;13.26;93.30
28306;BME280;7516;43.570;1.448;2024-03-02T11:59:43;97812.00;;;13.29;93.33
28306;BME280;7516;43.570;1.448;2024-03-02T12:02:18;97800.31;;;13.36;92.22
28306;BME280;7516;43.570;1.448;2024-03-02T12:04:49;97800.16;;;13.43;92.63
28306;BME280;7516;43.570;1.448;2024-03-02T12:07:19;97796.25;;;13.45;92.26
28306;BME280;7516;43.570;1.448;2024-03-02T12:09:48;97782.59;;;13.48;91.62
28306;BME280;7516;43.570;1.448;2024-03-02T12:12:16;97775.34;;;13.55;92.95
28306;BME280;7516;43.570;1.448;2024-03-02T12:14:51;97773.84;;;13.60;91.54
28306;BME280;7516;43.570;1.448;2024-03-02T12:17:19;97761.03;;;13.63;91.60
28306;BME280;7516;43.570;1.448;2024-03-02T12:19:48;97749.59;;;13.74;92.02
28306;BME280;7516;43.570;1.448;2024-03-02T12:22:15;97750.22;;;13.81;91.86
28306;BME280;7516;43.570;1.448;2024-03-02T12:24:43;97742.06;;;13.83;91.02
28306;BME280;7516;43.570;1.448;2024-03-02T12:27:11;97744.16;;;13.81;89.40
28306;BME280;7516;43.570;1.448;2024-03-02T12:29:39;97735.78;;;13.84;89.61
28306;BME280;7516;43.570;1.448;2024-03-02T12:32:07;97731.94;;;13.91;90.04
28306;BME280;7516;43.570;1.448;2024-03-02T12:34:35;97722.44;;;13.90;89.59
28306;BME280;7516;43.570;1.448;2024-03-02T12:37:04;97725.94;;;13.96;89.98
28306;BME280;7516;43.570;1.448;2024-03-02T12:39:31;97718.66;;;14.03;89.31
28306;BME280;7516;43.570;1.448;2024-03-02T12:41:59;97722.16;;;14.09;89.46
28306;BME280;7516;43.570;1.448;2024-03-02T12:44:26;97706.09;;;14.10;89.58
28306;BME280;7516;43.570;1.448;2024-03-02T12:46:54;97699.84;;;14.16;89.58
28306;BME280;7516;43.570;1.448;2024-03-02T12:49:23;97703.59;;;14.20;89.34
28306;BME280;7516;43.570;1.448;2024-03-02T12:51:50;97700.22;;;14.25;89.72
28306;BME280;7516;43.570;1.448;2024-03-02T12:54:23;97692.59;;;14.23;89.07
28306;BME280;7516;43.570;1.448;2024-03-02T12:56:51;97684.72;;;14.28;89.67
28306;BME280;7516;43.570;1.448;2024-03-02T12:59:21;97672.16;;;14.36;89.97
28306;BME280;7516;43.570;1.448;2024-03-02T13:01:52;97681.22;;;14.40;89.93
28306;BME280;7516;43.570;1.448;2024-03-02T13:04:22;97666.47;;;14.44;90.20
28306;BME280;7516;43.570;1.448;2024-03-02T13:06:51;97668.59;;;14.42;88.88
28306;BME280;7516;43.570;1.448;2024-03-02T13:09:20;97673.19;;;14.35;88.53
28306;BME280;7516;43.570;1.448;2024-03-02T13:11:49;97680.63;;;14.38;88.92
28306;BME280;7516;43.570;1.448;2024-03-02T13:14:16;97672.53;;;14.44;88.97
28306;BME280;7516;43.570;1.448;2024-03-02T13:16:45;97663.31;;;14.42;87.47
28306;BME280;7516;43.570;1.448;2024-03-02T13:19:13;97646.44;;;14.43;87.06